Time;durP1;ratioP1;P1;durP2;ratioP2;P2;SDS_P1;SDS_P2;PMS_P1;PMS_P2;Temp;Humidity;BMP_temperature;BMP_pressure;BME280_temperature;BME280_humidity;BME280_pressure;Samples;Min_cycle;Max_cycle;Signal;HPM_P1;HPM_P2
2024/01/01 00:01:43;;;;;;;30.43;17.67;;;6.40;99.90;;;;;;4746331;30;20211;-83
2024/01/01 00:04:09;;;;;;;26.70;17.67;;;6.40;99.90;;;;;;4750315;30;20250;-83
2024/01/01 00:06:35;;;;;;;26.53;16.03;;;6.50;99.90;;;;;;4752405;30;20207;-85
2024/01/01 00:09:01;;;;;;;26.90;16.17;;;6.50;99.90;;;;;;4752811;30;20572;-84
2024/01/01 00:11:27;;;;;;;21.30;14.47;;;6.50;99.90;;;;;;4750268;30;20200;-83
2024/01/01 00:13:53;;;;;;;26.03;15.80;;;6.50;99.90;;;;;;4746970;30;20279;-81
2024/01/01 00:16:19;;;;;;;19.93;12.50;;;6.50;99.90;;;;;;4751184;30;20220;-82
2024/01/01 00:18:45;;;;;;;22.47;14.00;;;6.50;99.90;;;;;;4745322;30;20196;-85
2024/01/01 00:21:11;;;;;;;25.93;12.67;;;6.50;99.90;;;;;;4747185;30;20211;-84
2024/01/01 00:23:37;;;;;;;21.37;11.70;;;6.50;99.90;;;;;;4764725;30;20196;-83
2024/01/01 00:26:04;;;;;;;14.27;9.77;;;6.60;99.90;;;;;;4732073;30;20237;-82
2024/01/01 00:28:30;;;;;;;15.90;9.07;;;6.60;99.90;;;;;;4746037;30;20589;-83
2024/01/01 00:30:56;;;;;;;13.73;8.50;;;6.60;99.90;;;;;;4761756;30;20323;-83
2024/01/01 00:33:22;;;;;;;14.87;8.53;;;6.60;99.90;;;;;;4764224;30;20196;-82
2024/01/01 00:35:48;;;;;;;13.17;8.67;;;6.60;99.90;;;;;;4748916;30;20207;-82
2024/01/01 00:38:14;;;;;;;14.33;8.80;;;6.60;99.90;;;;;;4746988;30;20738;-83
2024/01/01 00:40:40;;;;;;;15.93;8.33;;;6.50;99.90;;;;;;4750088;30;20196;-83
2024/01/01 00:43:06;;;;;;;14.23;8.50;;;6.50;99.90;;;;;;4759924;30;20219;-88
2024/01/01 00:45:34;;;;;;;15.33;7.80;;;6.40;99.90;;;;;;4751588;30;20302;-89
2024/01/01 00:48:02;;;;;;;18.33;7.37;;;6.40;99.90;;;;;;4762773;30;20238;-85
2024/01/01 00:50:27;;;;;;;14.07;6.00;;;6.40;99.90;;;;;;4746220;30;20235;-82
2024/01/01 00:52:53;;;;;;;10.83;6.53;;;6.50;99.90;;;;;;4740735;30;20252;-80
2024/01/01 00:55:19;;;;;;;10.73;5.90;;;6.50;99.90;;;;;;4744309;30;20249;-83
2024/01/01 00:57:46;;;;;;;13.03;6.40;;;6.50;99.90;;;;;;4743173;30;20196;-84
2024/01/01 01:00:12;;;;;;;10.70;6.00;;;6.50;99.90;;;;;;4761320;30;20643;-81
2024/01/01 01:02:38;;;;;;;11.10;5.87;;;6.40;99.90;;;;;;4747938;30;20192;-84
2024/01/01 01:05:04;;;;;;;11.13;5.63;;;6.50;99.90;;;;;;4751169;30;20533;-86
2024/01/01 01:07:30;;;;;;;11.40;4.60;;;6.50;99.90;;;;;;4743468;30;20203;-87
2024/01/01 01:09:56;;;;;;;8.93;4.70;;;6.50;99.90;;;;;;4738253;30;20249;-88
2024/01/01 01:12:22;;;;;;;12.83;4.90;;;6.50;99.90;;;;;;4738361;30;20196;-87
2024/01/01 01:14:49;;;;;;;7.90;4.70;;;6.40;99.90;;;;;;4755997;30;20206;-86
2024/01/01 01:17:21;;;;;;;7.77;4.40;;;6.40;99.90;;;;;;4739525;30;20206;-83
2024/01/01 01:19:46;;;;;;;11.53;4.77;;;6.50;99.90;;;;;;4757123;30;20219;-83
2024/01/01 01:22:12;;;;;;;8.53;3.20;;;6.50;99.90;;;;;;4770476;30;20226;-83
2024/01/01 01:24:38;;;;;;;6.80;3.67;;;6.50;99.90;;;;;;4769723;30;20239;-83
2024/01/01 01:27:04;;;;;;;9.67;3.70;;;6.50;99.90;;;;;;4770783;30;20195;-82
2024/01/01 01:29:30;;;;;;;10.13;3.30;;;6.60;99.90;;;;;;4765919;30;20704;-83
2024/01/01 01:31:56;;;;;;;7.67;3.43;;;6.70;99.90;;;;;;4743490;30;20221;-84
2024/01/01 01:34:22;;;;;;;11.90;3.13;;;6.60;99.90;;;;;;4748950;30;20207;-83
2024/01/01 01:36:49;;;;;;;4.70;2.80;;;6.60;99.90;;;;;;4754201;30;20195;-82
2024/01/01 01:39:15;;;;;;;8.50;3.07;;;6.60;99.90;;;;;;4747658;30;20216;-83
2024/01/01 01:41:40;;;;;;;11.93;3.53;;;6.60;99.90;;;;;;4754650;30;20226;-82
2024/01/01 01:44:06;;;;;;;6.17;3.37;;;6.60;99.90;;;;;;4770726;30;20199;-83
2024/01/01 01:46:33;;;;;;;6.23;3.10;;;6.70;99.90;;;;;;4753938;30;20250;-83
2024/01/01 01:49:01;;;;;;;7.50;3.70;;;6.80;99.90;;;;;;4752729;30;20261;-83
2024/01/01 01:51:28;;;;;;;7.70;4.00;;;6.80;99.90;;;;;;4741129;30;20548;-82
2024/01/01 01:53:54;;;;;;;9.07;3.87;;;6.80;99.90;;;;;;4746571;30;20203;-83
2024/01/01 01:56:21;;;;;;;9.23;3.60;;;6.80;99.90;;;;;;4749589;30;20196;-84
2024/01/01 01:58:47;;;;;;;6.80;3.33;;;6.90;99.90;;;;;;4754270;30;20208;-81
2024/01/01 02:01:13;;;;;;;5.77;3.40;;;6.90;99.90;;;;;;4770676;30;20188;-82
2024/01/01 02:03:39;;;;;;;6.07;3.73;;;6.90;99.90;;;;;;4754256;30;20207;-82
2024/01/01 02:06:05;;;;;;;6.17;3.73;;;6.90;99.90;;;;;;4754345;30;20231;-83
2024/01/01 02:08:32;;;;;;;6.47;3.60;;;6.90;99.90;;;;;;4770406;30;20532;-84
2024/01/01 02:10:58;;;;;;;5.53;3.67;;;6.80;99.90;;;;;;4749141;30;20196;-84
2024/01/01 02:13:24;;;;;;;9.13;4.27;;;6.80;99.90;;;;;;4746004;30;20204;-82
2024/01/01 02:15:50;;;;;;;8.37;4.33;;;6.70;99.90;;;;;;4756910;30;20644;-83
2024/01/01 02:18:16;;;;;;;10.20;4.17;;;6.70;99.90;;;;;;4762977;30;20199;-84
2024/01/01 02:20:42;;;;;;;8.77;4.10;;;6.70;99.90;;;;;;4763053;30;20211;-83
2024/01/01 02:23:08;;;;;;;9.17;4.43;;;6.70;99.90;;;;;;4754159;30;20192;-83
2024/01/01 02:25:33;;;;;;;6.63;4.13;;;6.70;99.90;;;;;;4753912;30;20602;-83
2024/01/01 02:27:59;;;;;;;11.00;4.73;;;6.60;99.90;;;;;;4770339;30;20946;-83
2024/01/01 02:30:25;;;;;;;6.83;4.30;;;6.70;99.90;;;;;;4754109;30;20301;-83
2024/01/01 02:32:50;;;;;;;7.67;4.73;;;6.70;99.90;;;;;;4750823;30;20228;-86
2024/01/01 02:35:16;;;;;;;9.07;4.93;;;6.60;99.90;;;;;;4752224;30;20196;-84
2024/01/01 02:37:42;;;;;;;8.93;4.13;;;6.60;99.90;;;;;;4742793;30;20200;-82
2024/01/01 02:40:08;;;;;;;8.77;4.20;;;6.60;99.90;;;;;;4772482;30;20207;-83
2024/01/01 02:42:35;;;;;;;9.27;4.40;;;6.50;99.90;;;;;;4757110;30;20199;-82
2024/01/01 02:45:00;;;;;;;10.90;4.50;;;6.50;99.90;;;;;;4762582;30;20230;-87
2024/01/01 02:47:26;;;;;;;8.57;4.90;;;6.40;99.90;;;;;;4773293;30;20184;-83
2024/01/01 02:49:52;;;;;;;10.20;4.83;;;6.40;99.90;;;;;;4772336;30;20540;-83
2024/01/01 02:52:18;;;;;;;10.00;4.47;;;6.40;99.90;;;;;;4748180;30;20196;-83
2024/01/01 02:54:44;;;;;;;9.63;4.00;;;6.40;99.90;;;;;;4747810;30;20200;-83
2024/01/01 02:57:12;;;;;;;9.47;4.40;;;6.40;99.90;;;;;;4767157;30;20295;-84
2024/01/01 02:59:39;;;;;;;10.73;4.17;;;6.50;99.90;;;;;;4750632;30;20211;-88
2024/01/01 03:02:07;;;;;;;10.77;4.00;;;6.50;99.90;;;;;;4751900;30;20201;-88
2024/01/01 03:04:32;;;;;;;8.70;3.87;;;6.60;99.90;;;;;;4754071;30;20200;-87
2024/01/01 03:06:58;;;;;;;8.10;3.57;;;6.70;99.90;;;;;;4739020;30;20645;-84
2024/01/01 03:09:24;;;;;;;11.03;4.07;;;6.70;99.90;;;;;;4746434;30;20540;-83
2024/01/01 03:11:50;;;;;;;8.97;3.60;;;6.80;99.90;;;;;;4742940;30;20211;-82
2024/01/01 03:14:16;;;;;;;8.30;3.57;;;6.80;99.90;;;;;;4771396;30;20192;-83
2024/01/01 03:16:42;;;;;;;11.10;4.07;;;6.90;99.90;;;;;;4771018;30;20214;-82
2024/01/01 03:19:09;;;;;;;11.87;4.13;;;6.90;99.90;;;;;;4768664;30;20201;-83
2024/01/01 03:21:35;;;;;;;6.67;3.57;;;7.00;99.90;;;;;;5155463;24;20220;-92
2024/01/01 03:24:01;;;;;;;12.33;3.60;;;6.90;99.90;;;;;;4756890;30;20223;-92
2024/01/01 03:26:27;;;;;;;8.60;3.73;;;7.00;99.90;;;;;;4781900;29;20282;-93
2024/01/01 03:28:53;;;;;;;11.20;3.60;;;7.10;99.90;;;;;;4758266;30;20265;-95
2024/01/01 03:31:18;;;;;;;9.47;3.90;;;7.10;99.90;;;;;;4758345;30;20195;-91
2024/01/01 03:33:47;;;;;;;8.87;3.67;;;7.10;99.90;;;;;;4762060;30;20201;-94
2024/01/01 03:36:13;;;;;;;10.23;3.50;;;7.10;99.90;;;;;;4762038;30;20544;-95
2024/01/01 03:38:39;;;;;;;8.13;3.53;;;7.10;99.90;;;;;;4758177;30;20199;-93
2024/01/01 03:41:05;;;;;;;8.83;3.87;;;7.20;99.90;;;;;;4764191;30;20229;-95
2024/01/01 03:43:35;;;;;;;11.27;4.13;;;7.10;99.90;;;;;;4759099;30;20231;-93
2024/01/01 03:46:01;;;;;;;8.30;3.10;;;7.00;99.90;;;;;;4757709;30;20223;-94
2024/01/01 03:48:27;;;;;;;5.97;3.47;;;7.00;99.90;;;;;;4765403;30;20204;-95
2024/01/01 03:50:53;;;;;;;7.83;3.87;;;7.00;99.90;;;;;;4769936;30;20281;-94
2024/01/01 03:53:20;;;;;;;6.77;3.13;;;7.00;99.90;;;;;;4760934;30;20270;-95
2024/01/01 03:55:46;;;;;;;11.17;3.70;;;6.90;99.90;;;;;;4750471;30;20200;-95
2024/01/01 03:58:12;;;;;;;8.03;3.53;;;6.90;99.90;;;;;;4764630;30;20277;-91
2024/01/01 04:00:38;;;;;;;11.03;4.07;;;6.90;99.90;;;;;;4769350;30;20706;-93
2024/01/01 04:03:04;;;;;;;8.90;3.47;;;6.90;99.90;;;;;;4770822;30;20207;-90
2024/01/01 04:05:29;;;;;;;8.57;2.70;;;6.90;99.90;;;;;;4760295;30;20223;-90
2024/01/01 04:07:55;;;;;;;7.40;3.17;;;6.90;99.90;;;;;;4780285;30;20199;-92
2024/01/01 04:10:21;;;;;;;8.17;3.17;;;6.90;99.90;;;;;;4773197;30;20227;-95
2024/01/01 04:12:47;;;;;;;8.43;3.70;;;6.90;99.90;;;;;;4768269;30;20194;-94
2024/01/01 04:15:13;;;;;;;6.40;3.27;;;6.80;99.90;;;;;;4761415;30;20196;-92
2024/01/01 04:17:38;;;;;;;7.90;3.53;;;6.80;99.90;;;;;;4764631;30;20538;-94
2024/01/01 04:20:10;;;;;;;10.53;3.80;;;6.80;99.90;;;;;;4765483;30;20196;-93
2024/01/01 04:22:38;;;;;;;7.00;3.90;;;6.70;99.90;;;;;;4774368;30;20243;-92
2024/01/01 04:25:08;;;;;;;8.23;3.47;;;6.70;99.90;;;;;;4767694;30;20291;-94
2024/01/01 04:27:35;;;;;;;6.67;3.50;;;6.70;99.90;;;;;;4774576;30;20694;-93
2024/01/01 04:30:00;;;;;;;9.13;3.97;;;6.70;99.90;;;;;;4757758;30;20591;-92
2024/01/01 04:32:26;;;;;;;7.83;3.50;;;6.70;99.90;;;;;;4781222;30;20187;-93
2024/01/01 04:35:06;;;;;;;6.83;3.57;;;6.60;99.90;;;;;;4756995;30;20286;-94
2024/01/01 04:37:32;;;;;;;7.47;3.53;;;6.70;99.90;;;;;;4773705;30;20198;-95
2024/01/01 04:39:57;;;;;;;8.63;3.33;;;6.80;99.90;;;;;;4762544;30;20191;-91
2024/01/01 04:42:23;;;;;;;8.53;3.60;;;6.80;99.90;;;;;;4767431;30;20203;-94
2024/01/01 04:44:52;;;;;;;8.20;3.73;;;6.80;99.90;;;;;;4764935;30;20315;-95
2024/01/01 04:47:18;;;;;;;8.47;3.80;;;6.90;99.90;;;;;;4764843;30;20632;-95
2024/01/01 04:49:43;;;;;;;10.20;3.97;;;6.80;99.90;;;;;;4764342;30;20282;-93
2024/01/01 04:52:09;;;;;;;8.57;3.73;;;6.80;99.90;;;;;;4757476;30;20245;-93
2024/01/01 04:54:43;;;;;;;8.10;3.53;;;6.90;99.90;;;;;;4757116;30;20191;-91
2024/01/01 04:57:09;;;;;;;8.00;3.17;;;6.90;99.90;;;;;;4762639;30;20195;-91
2024/01/01 04:59:35;;;;;;;8.60;3.43;;;7.00;99.90;;;;;;4758108;30;20195;-91
2024/01/01 05:02:01;;;;;;;9.40;3.30;;;7.00;99.90;;;;;;4757104;30;20203;-92
2024/01/01 05:04:27;;;;;;;6.47;3.30;;;7.00;99.90;;;;;;4764167;30;20191;-92
2024/01/01 05:06:52;;;;;;;7.50;3.47;;;6.90;99.90;;;;;;4761783;30;20206;-95
2024/01/01 05:09:18;;;;;;;6.00;3.23;;;6.90;99.90;;;;;;4779889;30;20200;-92
2024/01/01 05:11:44;;;;;;;7.77;3.37;;;6.90;99.90;;;;;;4764129;30;20196;-95
2024/01/01 05:14:12;;;;;;;7.47;3.37;;;6.80;99.90;;;;;;4757210;30;20187;-92
2024/01/01 05:16:39;;;;;;;5.53;3.10;;;6.80;99.90;;;;;;4756221;30;20227;-92
2024/01/01 05:19:05;;;;;;;9.57;3.90;;;6.70;99.90;;;;;;4762243;30;20222;-92
2024/01/01 05:21:30;;;;;;;8.43;3.67;;;6.70;99.90;;;;;;4766482;30;20214;-94
2024/01/01 05:23:57;;;;;;;7.10;3.53;;;6.70;99.90;;;;;;4761605;30;20596;-92
2024/01/01 05:26:23;;;;;;;7.63;3.03;;;6.60;99.90;;;;;;4756103;30;20226;-92
2024/01/01 05:28:49;;;;;;;8.50;3.70;;;6.60;99.90;;;;;;4756066;30;20196;-90
2024/01/01 05:31:24;;;;;;;9.67;3.50;;;6.60;99.90;;;;;;4756659;30;20643;-92
2024/01/01 05:33:49;;;;;;;6.87;3.23;;;6.60;99.90;;;;;;4750292;30;20199;-91
2024/01/01 05:36:15;;;;;;;8.50;3.83;;;6.70;99.90;;;;;;4761439;30;20507;-92
2024/01/01 05:38:41;;;;;;;10.33;3.90;;;6.70;99.90;;;;;;4748651;30;20278;-93
2024/01/01 05:41:11;;;;;;;7.17;3.50;;;6.80;99.90;;;;;;4753744;30;20283;-93
2024/01/01 05:43:37;;;;;;;7.90;3.47;;;6.80;99.90;;;;;;4755654;30;20253;-96
2024/01/01 05:46:03;;;;;;;11.57;4.00;;;6.90;99.90;;;;;;4756236;30;20235;-92
2024/01/01 05:48:28;;;;;;;8.40;3.40;;;6.80;99.90;;;;;;4770830;30;20239;-92
2024/01/01 05:50:54;;;;;;;8.67;3.60;;;6.80;99.90;;;;;;4756081;30;20290;-93
2024/01/01 05:53:20;;;;;;;5.87;2.80;;;6.80;99.90;;;;;;4755937;30;20271;-94
2024/01/01 05:55:46;;;;;;;7.53;3.27;;;6.70;99.90;;;;;;4755905;30;20203;-91
2024/01/01 05:58:12;;;;;;;9.07;3.60;;;6.70;99.90;;;;;;4756229;30;20549;-91
2024/01/01 06:00:39;;;;;;;9.97;3.50;;;6.70;99.90;;;;;;4756041;30;20211;-93
2024/01/01 06:03:05;;;;;;;6.70;3.43;;;6.70;99.90;;;;;;4756115;30;20616;-90
2024/01/01 06:05:35;;;;;;;13.20;3.50;;;6.70;99.90;;;;;;4755671;30;20228;-93
2024/01/01 06:08:02;;;;;;;9.87;3.50;;;6.80;99.90;;;;;;4769677;30;20184;-95
2024/01/01 06:10:29;;;;;;;8.67;3.00;;;6.90;99.90;;;;;;4759606;30;20204;-93
2024/01/01 06:12:56;;;;;;;10.17;3.80;;;7.00;99.90;;;;;;4759578;30;20191;-93
2024/01/01 06:15:32;;;;;;;8.70;3.30;;;7.00;99.90;;;;;;4759479;30;20608;-93
2024/01/01 06:17:58;;;;;;;6.73;3.13;;;7.00;99.90;;;;;;4758878;30;20566;-94
2024/01/01 06:20:24;;;;;;;6.37;3.40;;;7.00;99.90;;;;;;4767004;30;20195;-96
2024/01/01 06:22:50;;;;;;;7.73;3.10;;;7.00;99.90;;;;;;4760235;30;20247;-93
2024/01/01 06:25:24;;;;;;;9.37;3.23;;;7.00;99.90;;;;;;4773479;30;20219;-96
2024/01/01 06:27:50;;;;;;;9.57;3.47;;;7.00;99.90;;;;;;4791994;30;20635;-94
2024/01/01 06:30:16;;;;;;;9.57;3.50;;;7.10;99.90;;;;;;4785379;30;20249;-94
2024/01/01 06:32:42;;;;;;;7.40;3.30;;;7.10;99.90;;;;;;4774629;30;20248;-94
2024/01/01 06:35:09;;;;;;;4.83;3.00;;;7.10;99.90;;;;;;4769824;30;20191;-93
2024/01/01 06:37:35;;;;;;;11.47;3.80;;;7.10;99.90;;;;;;4771439;30;20200;-94
2024/01/01 06:40:01;;;;;;;8.50;3.23;;;7.10;99.90;;;;;;4772599;30;20195;-94
2024/01/01 06:42:27;;;;;;;7.63;3.40;;;7.00;99.90;;;;;;4759342;30;20205;-92
2024/01/01 06:45:00;;;;;;;8.67;3.10;;;7.10;99.90;;;;;;4760377;30;20310;-95
2024/01/01 06:47:25;;;;;;;12.13;3.63;;;7.00;99.90;;;;;;4757340;30;20211;-93
2024/01/01 06:49:51;;;;;;;10.23;3.83;;;7.00;99.90;;;;;;4772161;30;20191;-95
2024/01/01 06:52:17;;;;;;;6.43;3.07;;;7.00;99.90;;;;;;4785276;30;20271;-95
2024/01/01 06:54:43;;;;;;;6.90;3.20;;;7.10;99.90;;;;;;4789494;29;20196;-94
2024/01/01 06:57:09;;;;;;;10.00;3.73;;;7.10;99.90;;;;;;4775463;30;20200;-93
2024/01/01 06:59:36;;;;;;;8.23;3.33;;;7.20;99.90;;;;;;4744095;30;20199;-94
2024/01/01 07:02:02;;;;;;;10.53;3.73;;;7.30;99.90;;;;;;4766969;30;21930;-96
2024/01/01 07:04:28;;;;;;;8.93;3.97;;;7.20;99.90;;;;;;4757524;30;20200;-96
2024/01/01 07:06:56;;;;;;;11.20;5.07;;;7.20;99.90;;;;;;4759457;30;20203;-92
2024/01/01 07:09:22;;;;;;;10.03;4.33;;;7.10;99.90;;;;;;4755497;30;20275;-95
2024/01/01 07:11:48;;;;;;;10.17;5.07;;;7.20;99.90;;;;;;4751810;30;20230;-94
2024/01/01 07:14:14;;;;;;;10.27;5.00;;;7.10;99.90;;;;;;4754671;30;20199;-90
2024/01/01 07:16:41;;;;;;;11.70;4.87;;;7.10;99.90;;;;;;4765953;30;20191;-90
2024/01/01 07:19:08;;;;;;;11.63;5.03;;;7.10;99.90;;;;;;4774041;30;20196;-88
2024/01/01 07:21:34;;;;;;;12.07;5.57;;;7.10;99.90;;;;;;4758475;30;20192;-92
2024/01/01 07:24:00;;;;;;;9.63;5.20;;;7.10;99.90;;;;;;4763361;30;20279;-90
2024/01/01 07:26:27;;;;;;;12.93;5.67;;;7.10;99.90;;;;;;4756909;30;20391;-87
2024/01/01 07:28:53;;;;;;;14.93;6.03;;;7.10;99.90;;;;;;4751748;30;20188;-95
2024/01/01 07:31:18;;;;;;;11.77;5.97;;;7.10;99.90;;;;;;4757044;30;20473;-96
2024/01/01 07:33:44;;;;;;;11.67;5.63;;;7.00;99.90;;;;;;4767300;30;20196;-92
2024/01/01 07:36:13;;;;;;;14.43;5.80;;;7.00;99.90;;;;;;4762635;30;20200;-93
2024/01/01 07:38:41;;;;;;;13.80;6.30;;;7.00;99.90;;;;;;4773073;30;20655;-93
2024/01/01 07:41:10;;;;;;;12.87;6.07;;;6.90;99.90;;;;;;4772622;30;20192;-94
2024/01/01 07:43:46;;;;;;;16.90;7.17;;;6.90;99.90;;;;;;4760855;30;20208;-95
2024/01/01 07:46:11;;;;;;;15.80;6.50;;;6.90;99.90;;;;;;4758973;30;20676;-95
2024/01/01 07:48:37;;;;;;;11.67;6.83;;;6.90;99.90;;;;;;4764027;30;20644;-95
2024/01/01 07:51:05;;;;;;;14.30;6.83;;;6.90;99.90;;;;;;4761985;30;20219;-94
2024/01/01 07:53:31;;;;;;;13.07;6.23;;;6.90;99.90;;;;;;4757464;30;20538;-95
2024/01/01 07:56:01;;;;;;;15.50;6.60;;;7.00;99.90;;;;;;4753183;30;20197;-96
2024/01/01 07:58:27;;;;;;;14.43;6.67;;;7.00;99.90;;;;;;4762118;30;20193;-93
2024/01/01 08:00:55;;;;;;;12.23;5.60;;;6.90;99.90;;;;;;4758193;30;20227;-93
2024/01/01 08:03:21;;;;;;;10.10;5.43;;;6.90;99.90;;;;;;4756140;30;20264;-94
2024/01/01 08:05:57;;;;;;;12.57;6.13;;;6.90;99.90;;;;;;4762870;30;20227;-94
2024/01/01 08:08:23;;;;;;;12.37;5.87;;;7.00;99.90;;;;;;4762667;30;20227;-95
2024/01/01 08:10:49;;;;;;;15.27;5.93;;;7.00;99.90;;;;;;4763102;30;20699;-93
2024/01/01 08:13:15;;;;;;;10.27;5.63;;;6.90;99.90;;;;;;4770056;30;20192;-91
2024/01/01 08:15:46;;;;;;;11.67;5.43;;;7.00;99.90;;;;;;4763237;30;20260;-91
2024/01/01 08:18:12;;;;;;;12.60;5.20;;;6.90;99.90;;;;;;4756018;30;20266;-95
2024/01/01 08:20:38;;;;;;;8.53;4.97;;;6.90;99.90;;;;;;4762798;30;20624;-94
2024/01/01 08:23:04;;;;;;;11.50;5.00;;;6.90;99.90;;;;;;4755208;30;20296;-93
2024/01/01 08:25:29;;;;;;;11.10;5.10;;;6.90;99.90;;;;;;4762639;30;20244;-91
2024/01/01 08:27:58;;;;;;;13.40;4.83;;;7.00;99.90;;;;;;4766784;30;20286;-92
2024/01/01 08:30:24;;;;;;;12.80;5.13;;;7.00;99.90;;;;;;4765420;30;20204;-94
2024/01/01 08:32:49;;;;;;;12.87;4.90;;;7.00;99.90;;;;;;4761163;30;20189;-92
2024/01/01 08:35:15;;;;;;;11.23;5.43;;;7.00;99.90;;;;;;4755461;30;20259;-91
2024/01/01 08:37:42;;;;;;;12.37;4.93;;;7.00;99.90;;;;;;4749657;30;20625;-89
2024/01/01 08:40:10;;;;;;;10.57;5.07;;;7.00;99.90;;;;;;4764713;30;20223;-90
2024/01/01 08:42:37;;;;;;;9.80;4.53;;;7.00;99.90;;;;;;4754502;30;20196;-91
2024/01/01 08:45:03;;;;;;;10.03;4.90;;;7.00;99.90;;;;;;4753515;30;20216;-91
2024/01/01 08:47:29;;;;;;;11.13;5.17;;;7.00;99.90;;;;;;4748748;30;20216;-91
2024/01/01 08:49:55;;;;;;;9.47;4.87;;;7.00;99.90;;;;;;4765366;30;20199;-94
2024/01/01 08:52:21;;;;;;;14.33;5.37;;;7.00;99.90;;;;;;4759550;30;20207;-93
2024/01/01 08:54:47;;;;;;;17.03;4.60;;;7.00;99.90;;;;;;4761664;30;20210;-89
2024/01/01 08:57:15;;;;;;;10.77;4.37;;;7.00;99.90;;;;;;4770462;30;20187;-90
2024/01/01 08:59:41;;;;;;;10.53;4.17;;;7.00;99.90;;;;;;4766188;30;20196;-89
2024/01/01 09:02:08;;;;;;;9.53;4.77;;;7.00;99.90;;;;;;4765122;30;20192;-92
2024/01/01 09:04:33;;;;;;;12.43;4.53;;;7.00;99.90;;;;;;4752318;30;20200;-92
2024/01/01 09:07:02;;;;;;;12.00;4.30;;;7.00;99.90;;;;;;4761523;30;20219;-94
2024/01/01 09:09:28;;;;;;;7.33;3.90;;;7.00;99.90;;;;;;4765275;30;20603;-91
2024/01/01 09:11:54;;;;;;;9.37;4.33;;;7.00;99.90;;;;;;4764070;30;20532;-92
2024/01/01 09:14:20;;;;;;;9.80;3.83;;;7.00;99.90;;;;;;4759532;30;20200;-94
2024/01/01 09:16:56;;;;;;;9.93;3.80;;;7.00;99.90;;;;;;4760537;30;20256;-94
2024/01/01 09:19:40;;;;;;;11.40;3.90;;;7.00;99.90;;;;;;4756854;30;20713;-88
2024/01/01 09:22:06;;;;;;;9.97;3.73;;;7.00;99.90;;;;;;4755356;30;20683;-92
2024/01/01 09:24:32;;;;;;;11.37;4.50;;;7.00;99.90;;;;;;4760731;30;20208;-94
2024/01/01 09:26:59;;;;;;;9.33;3.80;;;7.00;99.90;;;;;;4755209;30;20208;-89
2024/01/01 09:29:24;;;;;;;16.67;4.53;;;7.00;99.90;;;;;;4757964;30;20603;-91
2024/01/01 09:31:50;;;;;;;11.00;4.30;;;7.00;99.90;;;;;;4761018;30;20206;-94
2024/01/01 09:34:16;;;;;;;13.43;3.87;;;7.00;99.90;;;;;;4767421;30;20258;-95
2024/01/01 09:36:41;;;;;;;12.10;3.60;;;7.00;99.90;;;;;;4755617;30;20278;-92
2024/01/01 09:39:07;;;;;;;10.53;4.40;;;7.10;99.90;;;;;;4761891;30;20648;-93
2024/01/01 09:41:33;;;;;;;12.50;3.50;;;7.10;99.90;;;;;;4758252;30;20302;-90
2024/01/01 09:44:01;;;;;;;8.57;3.67;;;7.20;99.90;;;;;;4759226;30;20219;-94
2024/01/01 09:46:32;;;;;;;9.30;3.20;;;7.30;99.90;;;;;;4760028;30;20219;-89
2024/01/01 09:49:05;;;;;;;9.30;3.47;;;7.30;99.90;;;;;;4757908;30;20185;-91
2024/01/01 09:51:39;;;;;;;9.23;3.50;;;7.30;99.90;;;;;;4772635;30;20579;-96
2024/01/01 09:54:05;;;;;;;11.80;3.90;;;7.40;99.90;;;;;;4761808;30;20196;-93
2024/01/01 09:56:31;;;;;;;13.50;3.93;;;7.40;99.90;;;;;;4754888;30;20198;-94
2024/01/01 09:58:59;;;;;;;9.70;3.53;;;7.40;99.90;;;;;;4755941;30;20196;-96
2024/01/01 10:01:25;;;;;;;12.00;3.50;;;7.40;99.90;;;;;;4756192;30;20247;-96
2024/01/01 10:04:21;;;;;;;11.87;3.40;;;7.50;99.90;;;;;;4767237;30;20192;-93
2024/01/01 10:06:58;;;;;;;11.17;3.50;;;7.50;99.90;;;;;;4771241;30;20227;-91
2024/01/01 10:09:24;;;;;;;10.07;3.57;;;7.60;99.90;;;;;;4744861;30;20563;-92
2024/01/01 10:11:50;;;;;;;9.77;3.17;;;7.70;99.90;;;;;;4763746;30;20192;-93
2024/01/01 10:14:15;;;;;;;7.73;3.03;;;7.70;99.90;;;;;;4755141;30;20184;-92
2024/01/01 10:16:42;;;;;;;9.03;3.37;;;7.80;99.90;;;;;;4769322;30;20192;-91
2024/01/01 10:19:09;;;;;;;11.37;3.60;;;7.80;99.90;;;;;;4761203;30;20196;-93
2024/01/01 10:21:40;;;;;;;11.07;3.00;;;7.70;99.90;;;;;;4747813;30;20245;-88
2024/01/01 10:24:18;;;;;;;11.20;2.77;;;7.70;99.90;;;;;;4752866;30;20257;-90
2024/01/01 10:26:46;;;;;;;9.70;2.70;;;7.70;99.90;;;;;;4758673;30;20725;-92
2024/01/01 10:29:14;;;;;;;10.37;2.70;;;7.70;99.90;;;;;;4774181;30;20184;-94
2024/01/01 10:31:45;;;;;;;6.30;2.43;;;7.70;99.90;;;;;;4760527;30;20211;-94
2024/01/01 10:34:12;;;;;;;10.23;3.23;;;7.70;99.90;;;;;;4772673;30;20201;-94
2024/01/01 10:36:42;;;;;;;8.83;2.80;;;7.80;99.90;;;;;;4752119;30;20247;-95
2024/01/01 10:39:09;;;;;;;10.10;3.00;;;7.80;99.90;;;;;;4766383;30;20286;-90
2024/01/01 10:41:36;;;;;;;8.53;2.47;;;7.80;99.90;;;;;;4779868;30;20200;-87
2024/01/01 10:44:03;;;;;;;8.40;2.63;;;7.80;99.90;;;;;;4768386;30;20219;-92
2024/01/01 10:46:31;;;;;;;8.77;2.47;;;7.80;99.90;;;;;;4757808;30;20219;-89
2024/01/01 10:48:58;;;;;;;7.87;2.43;;;7.80;99.90;;;;;;4786411;30;20223;-93
2024/01/01 10:51:50;;;;;;;9.77;2.60;;;7.80;99.90;;;;;;4779393;30;20278;-91
2024/01/01 10:54:34;;;;;;;12.53;2.67;;;7.80;99.90;;;;;;4767226;30;20196;-92
2024/01/01 10:57:35;;;;;;;7.83;2.30;;;7.80;99.90;;;;;;4759710;30;20281;-96
2024/01/01 11:00:14;;;;;;;8.33;2.50;;;7.80;99.90;;;;;;4688477;30;20650;-92
2024/01/01 11:02:43;;;;;;;9.50;2.70;;;7.80;99.90;;;;;;4760838;30;20219;-89
2024/01/01 11:05:11;;;;;;;5.37;2.10;;;7.80;99.90;;;;;;4783360;30;20205;-94
2024/01/01 11:07:52;;;;;;;9.47;2.30;;;7.70;99.90;;;;;;4759807;30;20239;-94
2024/01/01 11:10:42;;;;;;;10.23;2.47;;;7.80;99.90;;;;;;4772714;30;20188;-95
2024/01/01 11:13:26;;;;;;;6.23;1.80;;;7.80;99.90;;;;;;4763618;30;20655;-92
2024/01/01 11:16:19;;;;;;;9.23;2.33;;;7.80;99.90;;;;;;4767549;30;20623;-92
2024/01/01 11:18:58;;;;;;;9.43;2.10;;;7.80;99.90;;;;;;4774395;30;20219;-94
2024/01/01 11:21:29;;;;;;;5.63;1.60;;;7.80;99.90;;;;;;4768904;30;20203;-96
2024/01/01 11:23:55;;;;;;;7.87;1.73;;;7.90;99.90;;;;;;4777215;30;20242;-90
2024/01/01 11:26:34;;;;;;;9.57;2.37;;;7.80;99.90;;;;;;4792560;30;20219;-91
2024/01/01 11:29:27;;;;;;;6.40;1.97;;;7.80;99.90;;;;;;4788157;30;20196;-91
2024/01/01 11:32:01;;;;;;;8.07;2.07;;;7.80;99.90;;;;;;4757441;30;20207;-95
2024/01/01 11:34:27;;;;;;;9.13;2.03;;;7.80;99.90;;;;;;4760242;30;20203;-93
2024/01/01 11:36:53;;;;;;;8.00;1.50;;;7.80;99.90;;;;;;4781736;29;20209;-91
2024/01/01 11:39:24;;;;;;;7.50;1.73;;;7.80;99.90;;;;;;4774132;30;20199;-96
2024/01/01 11:41:50;;;;;;;6.77;1.80;;;7.80;99.90;;;;;;4776797;30;20294;-89
2024/01/01 11:44:17;;;;;;;12.83;2.10;;;7.80;99.90;;;;;;4784586;30;20194;-92
2024/01/01 11:46:46;;;;;;;7.57;1.60;;;7.70;99.90;;;;;;4758332;30;20531;-95
2024/01/01 11:49:20;;;;;;;9.43;1.80;;;7.70;99.90;;;;;;4764934;30;20196;-95
2024/01/01 11:51:57;;;;;;;7.23;1.83;;;7.70;99.90;;;;;;4778100;30;20658;-96
2024/01/01 11:54:27;;;;;;;5.20;1.60;;;7.70;99.90;;;;;;4775581;30;20201;-92
2024/01/01 11:56:56;;;;;;;8.83;1.90;;;7.70;99.90;;;;;;4791490;29;20191;-94
2024/01/01 11:59:24;;;;;;;8.50;1.87;;;7.70;99.90;;;;;;4775539;30;20279;-95
2024/01/01 12:01:50;;;;;;;6.83;1.57;;;7.70;99.90;;;;;;4791819;30;20195;-95
2024/01/01 12:04:17;;;;;;;9.37;1.50;;;7.70;99.90;;;;;;4784330;30;20199;-95
2024/01/01 12:06:48;;;;;;;7.30;1.40;;;7.70;99.90;;;;;;4767899;30;20223;-93
2024/01/01 12:09:14;;;;;;;6.20;1.30;;;7.70;99.90;;;;;;4783994;30;20191;-89
2024/01/01 12:11:42;;;;;;;6.37;1.30;;;7.70;99.90;;;;;;4790879;30;20200;-89
2024/01/01 12:14:08;;;;;;;5.17;1.30;;;7.70;99.90;;;;;;4791134;29;20190;-91
2024/01/01 12:16:35;;;;;;;8.17;1.53;;;7.70;99.90;;;;;;4792574;29;20252;-93
2024/01/01 12:19:09;;;;;;;5.30;1.17;;;7.70;99.90;;;;;;4769164;30;20192;-95
2024/01/01 12:21:38;;;;;;;4.97;1.43;;;7.60;99.90;;;;;;4775073;30;20537;-89
2024/01/01 12:24:07;;;;;;;6.57;1.40;;;7.60;99.90;;;;;;4751061;30;20259;-95
2024/01/01 12:26:34;;;;;;;5.77;1.23;;;7.60;99.90;;;;;;4751539;30;20570;-90
2024/01/01 12:29:21;;;;;;;7.17;2.00;;;7.60;99.90;;;;;;4755044;30;20518;-93
2024/01/01 12:31:53;;;;;;;5.87;1.43;;;7.70;99.90;;;;;;4745798;30;20197;-95
2024/01/01 12:34:19;;;;;;;6.43;1.63;;;7.70;99.90;;;;;;4746562;30;20185;-93
2024/01/01 12:36:47;;;;;;;4.47;1.50;;;7.70;99.90;;;;;;4756856;30;20197;-95
2024/01/01 12:39:20;;;;;;;5.67;1.03;;;7.70;99.90;;;;;;4755224;30;20200;-96
2024/01/01 12:41:45;;;;;;;6.00;1.30;;;7.70;99.90;;;;;;4758473;30;20199;-96
2024/01/01 12:44:11;;;;;;;7.00;1.03;;;7.70;99.90;;;;;;4754514;30;20197;-96
2024/01/01 12:46:41;;;;;;;5.13;1.33;;;7.80;99.90;;;;;;4739363;30;20228;-94
2024/01/01 12:49:13;;;;;;;5.23;0.93;;;7.80;99.90;;;;;;4744144;30;20263;-95
2024/01/01 12:51:39;;;;;;;5.93;1.33;;;7.70;99.90;;;;;;4757140;30;20287;-96
2024/01/01 12:54:05;;;;;;;6.13;1.50;;;7.70;99.90;;;;;;4748669;30;20283;-95
2024/01/01 12:56:31;;;;;;;2.90;0.87;;;7.70;99.90;;;;;;4761580;30;20197;-94